ACA816 CYYZ-LIPZ
Flight info
| Callsign | ACA816 |
|---|---|
| Flight time | N/A |
| Altitude | 37000 |
| Route | VERDO7 IPTOS DCT KEMVI Q852 KANUR Q806 SAVEX DCT MIILS N285B NICSO/M082F390 DCT 48N050W 50N040W 52N030W 54N020W DCT DOGAL DCT BEXET/N0472F390 DCT LEDGO DCT EVCOR DCT NAKID DCT LIZAD DCT JSY UN160 PIGOP UN491 POGZI DCT GELTA DCT LUVAL DCT SHARA DCT DEVDI DCT RIPUS DCT RESIA DCT ADOSA/N0408F190 L612 ALBET |
| Aircraft | A333/H-SDE3GHIJ2J3J5M1RVWXY/LB2D1 |
Departure
| Time | 2026-05-05 09:40 |
|---|---|
| Airport | Toronto Pearson International Airport (CYYZ) |
Arrival
| Time | N/A |
|---|---|
| Airport | Venice Marco Polo Airport (LIPZ) |
| Time | Latitude | Longitude | Altitude | Speed | Heading |
|---|---|---|---|---|---|
| 2026-05-05 09:26 | 43.67759 | -79.61324 | 565 ft | 0 kts | 136° |
| 2026-05-05 09:30 | 43.67774 | -79.61344 | 574 ft | 4 kts | 137° |
| 2026-05-05 09:31 | 43.67794 | -79.61368 | 570 ft | 4 kts | 147° |
| 2026-05-05 09:31 | 43.67818 | -79.61382 | 572 ft | 4 kts | 176° |
| 2026-05-05 09:31 | 43.67842 | -79.61376 | 571 ft | 3 kts | 223° |
| 2026-05-05 09:31 | 43.67845 | -79.61372 | 570 ft | 1 kts | 226° |
| 2026-05-05 09:33 | 43.67834 | -79.61387 | 574 ft | 4 kts | 226° |
| 2026-05-05 09:33 | 43.67806 | -79.61428 | 574 ft | 7 kts | 226° |
| 2026-05-05 09:34 | 43.67764 | -79.61490 | 574 ft | 10 kts | 226° |
| 2026-05-05 09:34 | 43.67708 | -79.61571 | 573 ft | 13 kts | 226° |
| 2026-05-05 09:34 | 43.67645 | -79.61666 | 574 ft | 12 kts | 238° |
| 2026-05-05 09:34 | 43.67651 | -79.61745 | 573 ft | 8 kts | 303° |
| 2026-05-05 09:35 | 43.67699 | -79.61812 | 575 ft | 12 kts | 315° |
| 2026-05-05 09:35 | 43.67857 | -79.62019 | 574 ft | 19 kts | 316° |
| 2026-05-05 09:35 | 43.67980 | -79.62113 | 569 ft | 21 kts | 320° |
| 2026-05-05 09:36 | 43.68095 | -79.62262 | 575 ft | 24 kts | 316° |
| 2026-05-05 09:36 | 43.68223 | -79.62428 | 571 ft | 26 kts | 319° |
| 2026-05-05 09:36 | 43.68362 | -79.62598 | 569 ft | 28 kts | 316° |
| 2026-05-05 09:36 | 43.68509 | -79.62789 | 568 ft | 30 kts | 316° |
| 2026-05-05 09:37 | 43.68663 | -79.62989 | 570 ft | 30 kts | 316° |
| 2026-05-05 09:37 | 43.68810 | -79.63182 | 575 ft | 29 kts | 316° |
| 2026-05-05 09:37 | 43.68953 | -79.63369 | 575 ft | 27 kts | 316° |
| 2026-05-05 09:37 | 43.69073 | -79.63518 | 574 ft | 18 kts | 335° |
| 2026-05-05 09:38 | 43.69170 | -79.63459 | 578 ft | 16 kts | 42° |
| 2026-05-05 09:38 | 43.69285 | -79.63422 | 571 ft | 19 kts | 7° |
| 2026-05-05 09:38 | 43.69402 | -79.63335 | 578 ft | 19 kts | 35° |
| 2026-05-05 09:38 | 43.69491 | -79.63366 | 573 ft | 13 kts | 283° |
| 2026-05-05 09:39 | 43.69469 | -79.63430 | 574 ft | 0 kts | 229° |
| 2026-05-05 09:39 | 43.69454 | -79.63455 | 573 ft | 19 kts | 229° |
| 2026-05-05 09:39 | 43.69218 | -79.63796 | 574 ft | 77 kts | 226° |
| 2026-05-05 09:39 | 43.68731 | -79.64501 | 573 ft | 127 kts | 226° |
| 2026-05-05 09:40 | 43.68021 | -79.65519 | 751 ft | 157 kts | 225° |
| 2026-05-05 09:40 | 43.67291 | -79.66606 | 1448 ft | 152 kts | 230° |
| 2026-05-05 09:40 | 43.66637 | -79.67723 | 2184 ft | 152 kts | 232° |
| 2026-05-05 09:40 | 43.65873 | -79.68869 | 2483 ft | 171 kts | 230° |
| 2026-05-05 09:41 | 43.65010 | -79.70111 | 2712 ft | 192 kts | 230° |
| 2026-05-05 09:41 | 43.64042 | -79.71508 | 2904 ft | 210 kts | 230° |
| 2026-05-05 09:41 | 43.62977 | -79.73018 | 3087 ft | 229 kts | 225° |
| 2026-05-05 09:41 | 43.61557 | -79.74181 | 3434 ft | 246 kts | 204° |
| 2026-05-05 09:42 | 43.59809 | -79.74442 | 4016 ft | 263 kts | 177° |
| 2026-05-05 09:42 | 43.58112 | -79.73388 | 4565 ft | 283 kts | 144° |
| 2026-05-05 09:42 | 43.56802 | -79.71320 | 5218 ft | 287 kts | 131° |
| 2026-05-05 09:42 | 43.55636 | -79.69066 | 5876 ft | 289 kts | 131° |
| 2026-05-05 09:43 | 43.54485 | -79.66818 | 6426 ft | 292 kts | 131° |
| 2026-05-05 09:43 | 43.53292 | -79.64518 | 7073 ft | 294 kts | 132° |
| 2026-05-05 09:43 | 43.52089 | -79.62225 | 7736 ft | 295 kts | 132° |
| 2026-05-05 09:43 | 43.51017 | -79.59807 | 8391 ft | 305 kts | 118° |
| 2026-05-05 09:44 | 43.50660 | -79.56871 | 9049 ft | 318 kts | 88° |
| 2026-05-05 09:44 | 43.51076 | -79.53875 | 9687 ft | 323 kts | 77° |
| 2026-05-05 09:44 | 43.51677 | -79.50858 | 10211 ft | 329 kts | 76° |
| 2026-05-05 09:44 | 43.52304 | -79.47775 | 10462 ft | 345 kts | 76° |
| 2026-05-05 09:45 | 43.52963 | -79.44509 | 10679 ft | 361 kts | 75° |
| 2026-05-05 09:45 | 43.53889 | -79.41202 | 10879 ft | 378 kts | 66° |
| 2026-05-05 09:45 | 43.55070 | -79.37872 | 11100 ft | 393 kts | 63° |
| 2026-05-05 09:45 | 43.56317 | -79.34484 | 11287 ft | 408 kts | 63° |
| 2026-05-05 09:46 | 43.57618 | -79.30946 | 11587 ft | 418 kts | 63° |
| 2026-05-05 09:46 | 43.58945 | -79.27320 | 12049 ft | 424 kts | 63° |
| 2026-05-05 09:46 | 43.60274 | -79.23670 | 12520 ft | 428 kts | 63° |
| 2026-05-05 09:46 | 43.61597 | -79.20023 | 12996 ft | 432 kts | 63° |
| 2026-05-05 09:47 | 43.62956 | -79.16271 | 13486 ft | 436 kts | 63° |
| 2026-05-05 09:47 | 43.64301 | -79.12547 | 13932 ft | 440 kts | 63° |
| 2026-05-05 09:47 | 43.65673 | -79.08746 | 14387 ft | 443 kts | 63° |
| 2026-05-05 09:47 | 43.67049 | -79.04925 | 14839 ft | 446 kts | 63° |
| 2026-05-05 09:48 | 43.68440 | -79.01058 | 15280 ft | 449 kts | 63° |
| 2026-05-05 09:48 | 43.69839 | -78.97161 | 15715 ft | 453 kts | 63° |
| 2026-05-05 09:48 | 43.71226 | -78.93294 | 16126 ft | 456 kts | 63° |
| 2026-05-05 09:48 | 43.72642 | -78.89339 | 16551 ft | 459 kts | 63° |
| 2026-05-05 09:49 | 43.74071 | -78.85344 | 16991 ft | 462 kts | 63° |
| 2026-05-05 09:49 | 43.75487 | -78.81377 | 17411 ft | 465 kts | 63° |
| 2026-05-05 09:49 | 43.76925 | -78.77342 | 17837 ft | 468 kts | 63° |
| 2026-05-05 09:49 | 43.78351 | -78.73270 | 18211 ft | 471 kts | 64° |
| 2026-05-05 09:50 | 43.79777 | -78.69158 | 18586 ft | 474 kts | 64° |
| 2026-05-05 09:50 | 43.81186 | -78.65085 | 18947 ft | 475 kts | 64° |
| 2026-05-05 09:50 | 43.82617 | -78.60941 | 19325 ft | 477 kts | 64° |
| 2026-05-05 09:50 | 43.84052 | -78.56783 | 19694 ft | 479 kts | 64° |
| 2026-05-05 09:51 | 43.85497 | -78.52588 | 20059 ft | 482 kts | 64° |
| 2026-05-05 09:51 | 43.86949 | -78.48370 | 20348 ft | 486 kts | 64° |
| 2026-05-05 09:51 | 43.88385 | -78.44189 | 20707 ft | 488 kts | 64° |
| 2026-05-05 09:51 | 43.89855 | -78.39906 | 21076 ft | 490 kts | 64° |
| 2026-05-05 09:52 | 43.91307 | -78.35669 | 21415 ft | 492 kts | 64° |